Time;durP1;ratioP1;P1;durP2;ratioP2;P2;SDS_P1;SDS_P2;PMS_P1;PMS_P2;Temp;Humidity;BMP_temperature;BMP_pressure;BME280_temperature;BME280_humidity;BME280_pressure;Samples;Min_cycle;Max_cycle;Signal;HPM_P1;HPM_P2
2023/04/26 00:01:26;;;;;;;12.65;2.83;;;19.70;99.90;;;;;;5090533;28;20230;-76
2023/04/26 00:03:57;;;;;;;14.88;2.97;;;19.70;99.90;;;;;;5088313;28;20204;-78
2023/04/26 00:06:28;;;;;;;11.30;2.65;;;19.80;99.90;;;;;;5092049;28;20204;-78
2023/04/26 00:08:59;;;;;;;10.40;2.47;;;19.80;99.90;;;;;;5086691;28;20203;-77
2023/04/26 00:11:32;;;;;;;11.60;2.30;;;19.90;99.90;;;;;;5082690;28;20200;-78
2023/04/26 00:14:03;;;;;;;11.00;2.45;;;19.90;99.90;;;;;;5086026;28;20552;-78
2023/04/26 00:16:34;;;;;;;8.85;2.65;;;20.00;99.90;;;;;;5090726;28;20229;-77
2023/04/26 00:19:05;;;;;;;17.52;2.72;;;20.20;99.90;;;;;;5086864;28;20193;-78
2023/04/26 00:21:37;;;;;;;12.30;3.05;;;20.30;99.90;;;;;;5091679;28;20199;-76
2023/04/26 00:24:08;;;;;;;10.15;2.22;;;20.30;99.90;;;;;;5078111;28;20205;-77
2023/04/26 00:26:41;;;;;;;12.70;2.30;;;20.40;99.90;;;;;;5081040;28;20288;-77
2023/04/26 00:29:12;;;;;;;14.68;2.65;;;20.40;99.90;;;;;;5082671;28;20324;-77
2023/04/26 00:31:43;;;;;;;11.30;2.20;;;20.50;99.90;;;;;;5086337;28;20196;-77
2023/04/26 00:34:15;;;;;;;10.02;2.10;;;20.70;99.90;;;;;;5087745;28;20198;-78
2023/04/26 00:36:46;;;;;;;11.50;2.35;;;20.90;99.90;;;;;;5092479;28;20333;-77
2023/04/26 00:39:17;;;;;;;10.43;2.90;;;21.00;99.90;;;;;;5092719;28;20200;-76
2023/04/26 00:41:51;;;;;;;11.75;2.13;;;21.10;99.90;;;;;;5089695;28;20197;-77
2023/04/26 00:44:22;;;;;;;11.52;2.63;;;21.30;99.90;;;;;;5095214;28;20190;-77
2023/04/26 00:46:55;;;;;;;10.18;2.25;;;21.40;99.90;;;;;;5113228;28;20192;-76
2023/04/26 00:49:28;;;;;;;10.52;1.88;;;21.50;99.90;;;;;;5113419;28;20233;-77
2023/04/26 00:51:59;;;;;;;8.85;1.65;;;21.60;99.90;;;;;;5113749;28;20194;-77
2023/04/26 00:54:30;;;;;;;14.90;2.38;;;21.60;99.90;;;;;;5114239;28;20191;-77
2023/04/26 00:57:05;;;;;;;9.07;1.88;;;21.60;99.90;;;;;;5113971;28;20191;-77
2023/04/26 00:59:37;;;;;;;13.10;2.10;;;21.50;99.90;;;;;;5113861;28;20606;-77
2023/04/26 01:02:08;;;;;;;11.98;2.10;;;21.40;99.90;;;;;;5113662;28;20239;-76
2023/04/26 01:04:40;;;;;;;8.30;1.83;;;21.40;99.90;;;;;;5113866;27;20192;-77
2023/04/26 01:07:12;;;;;;;8.73;2.33;;;21.40;99.90;;;;;;5113730;28;20551;-77
2023/04/26 01:09:44;;;;;;;8.07;1.95;;;21.40;99.90;;;;;;5113721;28;20214;-77
2023/04/26 01:12:18;;;;;;;13.32;2.20;;;21.40;99.90;;;;;;5113821;28;20558;-78
2023/04/26 01:14:49;;;;;;;12.77;2.42;;;21.40;99.90;;;;;;5113750;28;20591;-79
2023/04/26 01:17:21;;;;;;;10.68;2.17;;;21.50;99.90;;;;;;5108000;28;20192;-77
2023/04/26 01:19:52;;;;;;;9.43;1.80;;;21.70;99.90;;;;;;5081864;28;20219;-77
2023/04/26 01:22:23;;;;;;;10.60;1.90;;;21.80;99.90;;;;;;5093095;28;20283;-78
2023/04/26 01:24:59;;;;;;;7.38;1.92;;;21.90;99.90;;;;;;5077540;28;20196;-78
2023/04/26 01:27:30;;;;;;;9.90;2.00;;;21.80;99.90;;;;;;5073179;28;20192;-77
2023/04/26 01:30:01;;;;;;;9.35;1.73;;;21.90;99.90;;;;;;5073114;28;20220;-78
2023/04/26 01:32:32;;;;;;;11.20;2.00;;;21.90;99.90;;;;;;5073013;28;20189;-77
2023/04/26 01:35:04;;;;;;;6.10;1.50;;;21.70;99.90;;;;;;5072737;28;20680;-77
2023/04/26 01:37:35;;;;;;;10.65;1.85;;;21.70;99.90;;;;;;5092772;28;20184;-77
2023/04/26 01:40:09;;;;;;;12.77;2.25;;;21.60;99.90;;;;;;5096594;28;20640;-78
2023/04/26 01:42:40;;;;;;;8.80;1.80;;;21.50;99.90;;;;;;5097185;28;20218;-77
2023/04/26 01:45:11;;;;;;;7.13;1.27;;;21.50;99.90;;;;;;5097211;28;20188;-77
2023/04/26 01:47:42;;;;;;;11.00;2.00;;;21.40;99.90;;;;;;5097410;28;20196;-77
2023/04/26 01:50:14;;;;;;;9.90;1.65;;;21.30;99.90;;;;;;5097062;28;20219;-78
2023/04/26 01:52:45;;;;;;;3.78;1.40;;;21.20;99.90;;;;;;5097261;28;20218;-77
2023/04/26 01:55:18;;;;;;;10.20;2.10;;;21.20;99.90;;;;;;5096984;28;20188;-77
2023/04/26 01:57:49;;;;;;;9.80;1.70;;;21.10;99.90;;;;;;5096925;28;20204;-77
2023/04/26 02:00:21;;;;;;;9.80;1.67;;;21.10;99.90;;;;;;5097244;28;20203;-78
2023/04/26 02:02:55;;;;;;;10.30;1.80;;;21.10;99.90;;;;;;5096624;28;20228;-78
2023/04/26 02:05:27;;;;;;;8.55;1.60;;;21.00;99.90;;;;;;5096548;28;20183;-78
2023/04/26 02:07:58;;;;;;;7.70;1.40;;;21.00;99.90;;;;;;5096589;28;20674;-77
2023/04/26 02:10:31;;;;;;;8.85;1.85;;;21.00;99.90;;;;;;5096508;28;20698;-78
2023/04/26 02:13:02;;;;;;;12.23;1.90;;;20.90;99.90;;;;;;5085344;28;20201;-78
2023/04/26 02:15:33;;;;;;;10.65;1.85;;;20.90;99.90;;;;;;5076331;28;20640;-77
2023/04/26 02:18:04;;;;;;;6.43;1.55;;;20.90;99.90;;;;;;5085526;28;20604;-76
2023/04/26 02:20:36;;;;;;;9.52;1.70;;;20.80;99.90;;;;;;5096308;28;20246;-76
2023/04/26 02:23:07;;;;;;;11.60;1.88;;;20.80;99.90;;;;;;5096337;28;20188;-77
2023/04/26 02:25:40;;;;;;;9.18;1.70;;;20.80;99.90;;;;;;5096288;28;20195;-78
2023/04/26 02:28:11;;;;;;;12.30;1.77;;;20.90;99.90;;;;;;5096634;28;20203;-76
2023/04/26 02:30:43;;;;;;;7.85;1.83;;;20.90;99.90;;;;;;5096435;28;20227;-76
2023/04/26 02:33:14;;;;;;;6.10;1.73;;;20.90;99.90;;;;;;5095926;28;20192;-77
2023/04/26 02:35:45;;;;;;;48.25;10.02;;;20.90;99.90;;;;;;5096060;28;20216;-78
2023/04/26 02:38:16;;;;;;;9.68;1.98;;;20.90;99.90;;;;;;5096220;28;20195;-79
2023/04/26 02:40:52;;;;;;;9.25;2.17;;;21.00;99.90;;;;;;5096031;28;20196;-77
2023/04/26 02:43:23;;;;;;;12.15;2.65;;;21.00;99.90;;;;;;5096027;28;20191;-76
2023/04/26 02:45:54;;;;;;;8.90;1.70;;;21.00;99.90;;;;;;5096332;28;20189;-77
2023/04/26 02:48:25;;;;;;;9.43;2.15;;;21.10;99.90;;;;;;5095746;28;20635;-78
2023/04/26 02:50:56;;;;;;;10.05;1.60;;;21.10;99.90;;;;;;5095219;28;20678;-77
2023/04/26 02:53:27;;;;;;;6.47;1.30;;;21.20;99.90;;;;;;5095850;28;20231;-77
2023/04/26 02:56:00;;;;;;;7.88;1.33;;;21.30;99.90;;;;;;5095851;28;20188;-77
2023/04/26 02:58:31;;;;;;;7.72;1.50;;;21.40;99.90;;;;;;5095754;28;20234;-78
2023/04/26 03:01:03;;;;;;;9.75;1.60;;;21.50;99.90;;;;;;5095720;28;20698;-78
2023/04/26 03:03:34;;;;;;;7.85;1.75;;;21.50;99.90;;;;;;5095455;28;20283;-77
2023/04/26 03:06:05;;;;;;;8.95;1.40;;;21.50;99.90;;;;;;5095573;28;20188;-78
2023/04/26 03:08:36;;;;;;;5.45;1.42;;;21.60;99.90;;;;;;5095591;28;20627;-77
2023/04/26 03:11:09;;;;;;;9.18;1.60;;;21.60;99.90;;;;;;5095317;28;20553;-78
2023/04/26 03:13:40;;;;;;;7.90;1.27;;;21.70;99.90;;;;;;5095739;28;20198;-78
2023/04/26 03:16:12;;;;;;;7.45;1.60;;;21.80;99.90;;;;;;5095440;28;20188;-78
2023/04/26 03:18:43;;;;;;;10.23;1.38;;;21.90;99.90;;;;;;5095376;28;20185;-78
2023/04/26 03:21:14;;;;;;;10.38;1.40;;;22.00;99.90;;;;;;5095312;28;20259;-79
2023/04/26 03:23:45;;;;;;;4.38;1.40;;;22.20;99.90;;;;;;5095192;28;20193;-78
2023/04/26 03:26:18;;;;;;;10.77;1.95;;;22.30;99.90;;;;;;5095135;28;20188;-78
2023/04/26 03:28:49;;;;;;;6.80;1.20;;;22.40;99.90;;;;;;5095109;28;20228;-79
2023/04/26 03:31:21;;;;;;;4.80;1.27;;;22.40;99.90;;;;;;5094684;28;20220;-78
2023/04/26 03:33:52;;;;;;;10.65;1.48;;;22.30;99.90;;;;;;5094847;28;20224;-80
2023/04/26 03:36:23;;;;;;;4.13;1.17;;;22.00;99.90;;;;;;5094767;28;20219;-78
2023/04/26 03:38:54;;;;;;;5.78;1.10;;;21.90;99.90;;;;;;5094849;28;20666;-79
2023/04/26 03:41:28;;;;;;;6.75;1.77;;;21.80;99.90;;;;;;5094780;28;20253;-79
2023/04/26 03:43:59;;;;;;;3.63;0.98;;;21.70;99.90;;;;;;5094839;28;20267;-78
2023/04/26 03:46:30;;;;;;;9.48;1.40;;;21.60;99.90;;;;;;5094590;28;20678;-78
2023/04/26 03:49:01;;;;;;;8.15;1.55;;;21.50;99.90;;;;;;5094804;28;20195;-78
2023/04/26 03:51:32;;;;;;;6.47;1.38;;;21.40;99.90;;;;;;5094545;28;20223;-77
2023/04/26 03:54:03;;;;;;;3.97;1.15;;;21.40;99.90;;;;;;5094527;28;20188;-78
2023/04/26 03:56:37;;;;;;;8.10;1.45;;;21.40;99.90;;;;;;5094554;28;20199;-78
2023/04/26 03:59:08;;;;;;;7.95;1.27;;;21.30;99.90;;;;;;5094504;28;20655;-77
2023/04/26 04:01:39;;;;;;;7.57;1.33;;;21.20;99.90;;;;;;5093617;28;20240;-77
2023/04/26 04:04:10;;;;;;;6.40;1.50;;;21.20;99.90;;;;;;5094043;28;20192;-78
2023/04/26 04:06:41;;;;;;;5.57;1.35;;;21.20;99.90;;;;;;5094401;28;20193;-77
2023/04/26 04:09:13;;;;;;;9.38;1.60;;;21.20;99.90;;;;;;5094411;28;20193;-78
2023/04/26 04:11:46;;;;;;;7.47;1.23;;;21.20;99.90;;;;;;5094458;28;20226;-78
2023/04/26 04:14:17;;;;;;;5.68;1.10;;;21.10;99.90;;;;;;5094028;28;20196;-77
2023/04/26 04:16:51;;;;;;;5.20;1.00;;;21.20;99.90;;;;;;5094560;28;20196;-78
2023/04/26 04:19:22;;;;;;;5.72;1.10;;;21.20;99.90;;;;;;5090904;28;20199;-78
2023/04/26 04:21:53;;;;;;;5.82;1.10;;;21.30;99.90;;;;;;5081639;28;20192;-77
2023/04/26 04:24:24;;;;;;;5.22;0.90;;;21.30;99.90;;;;;;5096394;28;20207;-77
2023/04/26 04:26:57;;;;;;;7.30;1.10;;;21.30;99.90;;;;;;5094585;28;20206;-77
2023/04/26 04:29:28;;;;;;;3.70;0.70;;;21.30;99.90;;;;;;5104244;28;20202;-78
2023/04/26 04:31:59;;;;;;;3.83;0.93;;;21.30;99.90;;;;;;5095981;28;20216;-78
2023/04/26 04:34:30;;;;;;;4.05;0.80;;;21.30;99.90;;;;;;5095583;28;20203;-77
2023/04/26 04:37:01;;;;;;;5.60;0.90;;;21.30;99.90;;;;;;5083370;28;20196;-77
2023/04/26 04:39:32;;;;;;;7.75;1.10;;;21.20;99.90;;;;;;5093303;28;20199;-78
2023/04/26 04:42:05;;;;;;;5.68;0.88;;;21.20;99.90;;;;;;5083746;28;20222;-76
2023/04/26 04:44:36;;;;;;;7.05;1.17;;;21.20;99.90;;;;;;5092621;28;20200;-77
2023/04/26 04:47:07;;;;;;;4.75;0.93;;;21.20;99.90;;;;;;5079882;28;20189;-78
2023/04/26 04:49:38;;;;;;;6.53;1.00;;;21.20;99.90;;;;;;5097603;28;20555;-77
2023/04/26 04:52:09;;;;;;;8.70;1.40;;;21.20;99.90;;;;;;5091725;28;20220;-78
2023/04/26 04:54:40;;;;;;;6.50;1.00;;;21.20;99.90;;;;;;5082394;28;20204;-77
2023/04/26 04:57:15;;;;;;;5.90;1.00;;;21.20;99.90;;;;;;5086263;28;20554;-77
2023/04/26 04:59:46;;;;;;;6.18;1.00;;;21.20;99.90;;;;;;5094843;28;20203;-77
2023/04/26 05:02:17;;;;;;;6.07;1.40;;;21.20;99.90;;;;;;5084230;28;20248;-78
2023/04/26 05:04:49;;;;;;;7.13;0.88;;;21.20;99.90;;;;;;5085969;28;20197;-78
2023/04/26 05:07:20;;;;;;;5.40;1.00;;;21.20;99.90;;;;;;5073281;28;20602;-78
2023/04/26 05:09:51;;;;;;;6.05;1.10;;;21.20;99.90;;;;;;5088440;28;20565;-78
2023/04/26 05:12:24;;;;;;;3.95;1.00;;;21.20;99.90;;;;;;5093569;28;20647;-78
2023/04/26 05:14:55;;;;;;;7.22;1.00;;;21.20;99.90;;;;;;5089237;28;20180;-78
2023/04/26 05:17:26;;;;;;;5.63;1.00;;;21.10;99.90;;;;;;5104008;28;20191;-77
2023/04/26 05:19:57;;;;;;;5.53;1.30;;;21.10;99.90;;;;;;5073112;28;20196;-77
2023/04/26 05:22:29;;;;;;;6.45;1.20;;;21.20;99.90;;;;;;5085182;28;20203;-77
2023/04/26 05:25:00;;;;;;;4.40;0.80;;;21.20;99.90;;;;;;5099089;28;20196;-78
2023/04/26 05:27:34;;;;;;;6.85;1.10;;;21.10;99.90;;;;;;5101657;28;20193;-78
2023/04/26 05:30:05;;;;;;;6.18;1.40;;;21.10;99.90;;;;;;5101638;28;20655;-78
2023/04/26 05:32:36;;;;;;;9.20;1.60;;;21.10;99.90;;;;;;5089426;28;20257;-79
2023/04/26 05:35:07;;;;;;;5.20;1.23;;;21.00;99.90;;;;;;5091619;28;20218;-78
2023/04/26 05:37:38;;;;;;;8.48;1.15;;;21.00;99.90;;;;;;5093184;28;20233;-78
2023/04/26 05:40:11;;;;;;;5.68;1.30;;;20.90;99.90;;;;;;5092475;28;20185;-78
2023/04/26 05:42:45;;;;;;;7.80;1.48;;;20.90;99.90;;;;;;5092937;28;20205;-79
2023/04/26 05:45:16;;;;;;;7.10;1.27;;;20.80;99.90;;;;;;5092509;28;20689;-79
2023/04/26 05:47:48;;;;;;;7.50;1.23;;;20.80;99.90;;;;;;5093037;28;20276;-78
2023/04/26 05:50:19;;;;;;;6.78;1.20;;;20.80;99.90;;;;;;5092931;28;20192;-79
2023/04/26 05:52:50;;;;;;;9.07;1.38;;;20.80;99.90;;;;;;5092900;28;20229;-79
2023/04/26 05:55:22;;;;;;;6.20;1.13;;;20.80;99.90;;;;;;5093023;28;20193;-78
2023/04/26 05:57:55;;;;;;;7.45;1.45;;;20.90;99.90;;;;;;5092688;28;20184;-80
2023/04/26 06:00:27;;;;;;;9.43;1.67;;;20.80;99.90;;;;;;5092535;28;20189;-79
2023/04/26 06:02:58;;;;;;;6.10;1.30;;;20.80;99.90;;;;;;5092810;28;20227;-79
2023/04/26 06:05:29;;;;;;;6.28;1.27;;;20.70;99.90;;;;;;5092730;28;20242;-79
2023/04/26 06:08:00;;;;;;;7.45;1.20;;;20.70;99.90;;;;;;5093348;28;20213;-78
2023/04/26 06:10:31;;;;;;;10.13;1.80;;;20.70;99.90;;;;;;5093237;28;20197;-77
2023/04/26 06:13:04;;;;;;;6.80;1.30;;;20.70;99.90;;;;;;5092862;28;20577;-79
2023/04/26 06:15:35;;;;;;;6.72;1.30;;;20.70;99.90;;;;;;5092958;28;20249;-78
2023/04/26 06:18:07;;;;;;;4.30;0.98;;;20.70;99.90;;;;;;5093197;28;20184;-78
2023/04/26 06:20:38;;;;;;;8.13;1.38;;;20.70;99.90;;;;;;5088416;28;20292;-77
2023/04/26 06:23:10;;;;;;;7.20;1.35;;;20.70;99.90;;;;;;5086886;28;20199;-78
2023/04/26 06:25:44;;;;;;;4.88;1.20;;;20.60;99.90;;;;;;5093840;28;20227;-77
2023/04/26 06:28:17;;;;;;;8.13;1.30;;;20.60;99.90;;;;;;5090017;28;20215;-78
2023/04/26 06:30:48;;;;;;;7.75;1.60;;;20.60;99.90;;;;;;5087321;28;20216;-79
2023/04/26 06:33:19;;;;;;;6.30;1.30;;;20.60;99.90;;;;;;5105840;28;20550;-79
2023/04/26 06:35:51;;;;;;;6.28;1.20;;;20.60;99.90;;;;;;5089265;28;20683;-79
2023/04/26 06:38:22;;;;;;;8.45;1.58;;;20.60;99.90;;;;;;5087294;28;20287;-78
2023/04/26 06:40:53;;;;;;;7.65;1.23;;;20.60;99.90;;;;;;5075902;28;20185;-78
2023/04/26 06:43:26;;;;;;;8.20;1.45;;;20.60;99.90;;;;;;5099459;28;20184;-77
2023/04/26 06:45:57;;;;;;;7.50;1.30;;;20.50;99.90;;;;;;5102474;28;20265;-78
2023/04/26 06:48:28;;;;;;;6.05;0.90;;;20.50;99.90;;;;;;5109700;28;20184;-78
2023/04/26 06:50:59;;;;;;;6.18;1.50;;;20.50;99.90;;;;;;5094626;28;20204;-78
2023/04/26 06:53:30;;;;;;;4.30;0.70;;;20.40;99.90;;;;;;5101498;28;20196;-79
2023/04/26 06:56:01;;;;;;;5.68;1.20;;;20.40;99.90;;;;;;5098280;28;20206;-79
2023/04/26 06:58:35;;;;;;;6.53;1.10;;;20.30;99.90;;;;;;5106309;27;20196;-80
2023/04/26 07:01:07;;;;;;;5.95;0.95;;;20.30;99.90;;;;;;5096726;28;20259;-77
2023/04/26 07:03:41;;;;;;;7.68;1.13;;;20.30;99.90;;;;;;5090229;28;20663;-77
2023/04/26 07:06:12;;;;;;;6.65;0.98;;;20.20;99.90;;;;;;5085099;28;20552;-78
2023/04/26 07:08:43;;;;;;;4.85;0.85;;;20.20;99.90;;;;;;5075137;28;20632;-78
2023/04/26 07:11:14;;;;;;;5.93;0.80;;;20.10;99.90;;;;;;5075221;28;20215;-78
2023/04/26 07:13:47;;;;;;;8.32;1.05;;;20.00;99.90;;;;;;5086631;28;20574;-78
2023/04/26 07:16:18;;;;;;;7.25;0.98;;;20.00;99.90;;;;;;5075077;28;20216;-77
2023/04/26 07:18:50;;;;;;;8.55;1.13;;;19.90;99.90;;;;;;5082050;28;20569;-78
2023/04/26 07:21:21;;;;;;;4.78;0.90;;;19.90;99.90;;;;;;5091558;28;20204;-78
2023/04/26 07:23:56;;;;;;;7.38;1.20;;;19.80;99.90;;;;;;5095183;28;20192;-78
2023/04/26 07:26:28;;;;;;;11.45;1.63;;;19.80;99.90;;;;;;5094598;28;20286;-77
2023/04/26 07:29:04;;;;;;;6.70;1.40;;;19.80;99.90;;;;;;5095257;28;20536;-78
2023/04/26 07:31:35;;;;;;;4.32;0.95;;;19.70;99.90;;;;;;5095537;28;20312;-78
2023/04/26 07:34:06;;;;;;;5.35;1.17;;;19.70;99.90;;;;;;5095421;28;20188;-78
2023/04/26 07:36:37;;;;;;;8.98;1.42;;;19.70;99.90;;;;;;5088138;28;20208;-78
2023/04/26 07:39:09;;;;;;;5.15;1.30;;;19.60;99.90;;;;;;5075203;28;20193;-78
2023/04/26 07:41:40;;;;;;;9.10;1.35;;;19.60;99.90;;;;;;5080089;28;20201;-77
2023/04/26 07:44:13;;;;;;;8.35;1.55;;;19.60;99.90;;;;;;5074682;28;20185;-78
2023/04/26 07:46:44;;;;;;;8.18;1.60;;;19.50;99.90;;;;;;5094805;28;20204;-78
2023/04/26 07:49:16;;;;;;;5.47;1.70;;;19.50;99.90;;;;;;5091947;28;20192;-78
2023/04/26 07:51:47;;;;;;;5.50;1.67;;;19.40;99.90;;;;;;5092361;28;20671;-78
2023/04/26 07:54:18;;;;;;;7.72;1.60;;;19.40;99.90;;;;;;5092838;28;20195;-78
2023/04/26 07:56:49;;;;;;;6.32;1.50;;;19.40;99.90;;;;;;5074972;28;20201;-78
2023/04/26 07:59:22;;;;;;;8.02;1.75;;;19.40;99.90;;;;;;5093549;28;20188;-78
2023/04/26 08:01:53;;;;;;;6.70;1.40;;;19.40;99.90;;;;;;5083806;28;20247;-77
2023/04/26 08:04:34;;;;;;;8.10;1.50;;;19.30;99.90;;;;;;5087034;28;20677;-76
2023/04/26 08:07:05;;;;;;;7.68;1.60;;;19.30;99.90;;;;;;5083555;28;20195;-78
2023/04/26 08:09:37;;;;;;;9.50;1.50;;;19.30;99.90;;;;;;5078783;28;20193;-77
2023/04/26 08:12:08;;;;;;;7.20;1.45;;;19.30;99.90;;;;;;5083098;28;20221;-78
2023/04/26 08:14:41;;;;;;;6.55;1.50;;;19.30;99.90;;;;;;5092917;28;20216;-76
2023/04/26 08:17:12;;;;;;;8.95;1.98;;;19.20;99.90;;;;;;5081747;28;20196;-74
2023/04/26 08:19:43;;;;;;;10.40;2.60;;;19.20;99.90;;;;;;5080773;28;20222;-75
2023/04/26 08:22:15;;;;;;;8.45;2.55;;;19.30;99.90;;;;;;5073832;28;20200;-75
2023/04/26 08:24:50;;;;;;;10.38;2.60;;;19.20;99.90;;;;;;5085702;28;20197;-74
2023/04/26 08:27:21;;;;;;;7.65;1.90;;;19.20;99.90;;;;;;5076767;28;20225;-74
2023/04/26 08:29:55;;;;;;;7.65;1.90;;;19.20;99.90;;;;;;5090321;28;20207;-75
2023/04/26 08:32:26;;;;;;;4.88;1.33;;;19.30;99.90;;;;;;5076962;28;20216;-75
2023/04/26 08:34:57;;;;;;;9.00;1.70;;;19.30;99.90;;;;;;5092088;28;20223;-74
2023/04/26 08:37:28;;;;;;;5.22;1.40;;;19.30;99.90;;;;;;5083965;28;20211;-75
2023/04/26 08:39:59;;;;;;;3.97;1.30;;;19.30;99.90;;;;;;5075896;28;20200;-75
2023/04/26 08:42:30;;;;;;;6.20;1.60;;;19.30;99.90;;;;;;5086658;28;20193;-74
2023/04/26 08:45:05;;;;;;;6.70;1.25;;;19.30;99.90;;;;;;5086513;28;20200;-75
2023/04/26 08:47:44;;;;;;;7.40;1.50;;;19.30;99.90;;;;;;5085890;28;20200;-74
2023/04/26 08:50:16;;;;;;;5.57;1.60;;;19.30;99.90;;;;;;5094111;28;20190;-74
2023/04/26 08:52:49;;;;;;;6.95;1.13;;;19.30;99.90;;;;;;5083760;28;20216;-74
2023/04/26 08:55:20;;;;;;;6.97;1.48;;;19.30;99.90;;;;;;5088934;28;20231;-74
2023/04/26 08:57:52;;;;;;;9.77;1.83;;;19.30;99.90;;;;;;5094335;28;20203;-74
2023/04/26 09:00:26;;;;;;;9.70;1.45;;;19.30;99.90;;;;;;5088107;28;20188;-74
2023/04/26 09:02:57;;;;;;;10.18;1.70;;;19.40;99.90;;;;;;5090303;28;20586;-74
2023/04/26 09:05:28;;;;;;;8.55;1.60;;;19.40;99.90;;;;;;5089897;28;20669;-74
2023/04/26 09:08:03;;;;;;;6.90;1.20;;;19.50;99.90;;;;;;5092428;28;20681;-74
2023/04/26 09:10:34;;;;;;;7.90;1.33;;;19.60;99.90;;;;;;5084299;28;20667;-74
2023/04/26 09:13:05;;;;;;;6.72;1.30;;;19.70;99.90;;;;;;5073858;28;20216;-74
2023/04/26 09:15:40;;;;;;;5.10;1.08;;;19.80;99.90;;;;;;5070741;28;20275;-73
2023/04/26 09:18:21;;;;;;;7.75;1.23;;;19.80;99.90;;;;;;5085596;28;20671;-74
2023/04/26 09:21:06;;;;;;;7.07;1.15;;;19.90;99.90;;;;;;5078405;28;20678;-73
2023/04/26 09:23:38;;;;;;;6.07;1.10;;;19.90;99.90;;;;;;5085991;28;20207;-74
2023/04/26 09:26:22;;;;;;;11.15;1.40;;;19.90;99.90;;;;;;5082781;28;20545;-75
2023/04/26 09:29:12;;;;;;;9.75;1.10;;;19.90;99.90;;;;;;5077765;28;20609;-74
2023/04/26 09:31:48;;;;;;;8.05;1.40;;;19.90;99.90;;;;;;5085795;28;20197;-74
2023/04/26 09:34:19;;;;;;;6.05;1.20;;;19.80;99.90;;;;;;5084426;28;20222;-75
2023/04/26 09:36:52;;;;;;;7.28;1.42;;;19.80;99.90;;;;;;5097063;28;20276;-74
2023/04/26 09:39:38;;;;;;;5.93;1.55;;;19.70;99.90;;;;;;5092855;28;20192;-74
2023/04/26 09:42:10;;;;;;;5.53;1.60;;;19.70;99.90;;;;;;5097353;28;20205;-74
2023/04/26 09:44:41;;;;;;;7.50;1.67;;;19.60;99.90;;;;;;5085381;28;20199;-74
2023/04/26 09:47:14;;;;;;;5.80;1.60;;;19.60;99.90;;;;;;5092062;28;20587;-74
2023/04/26 09:49:50;;;;;;;5.45;1.70;;;19.50;99.90;;;;;;5072504;28;20664;-74
2023/04/26 09:52:21;;;;;;;5.30;1.60;;;19.50;99.90;;;;;;5073242;28;20212;-74
2023/04/26 09:54:54;;;;;;;5.45;1.48;;;19.40;99.90;;;;;;5073137;28;20201;-74
2023/04/26 09:57:25;;;;;;;6.80;1.40;;;19.30;99.90;;;;;;5088166;28;20203;-74
2023/04/26 09:59:57;;;;;;;6.90;1.48;;;19.30;99.90;;;;;;5082466;28;20209;-74
2023/04/26 10:02:30;;;;;;;9.02;1.83;;;19.10;99.90;;;;;;5098504;28;20235;-74
2023/04/26 10:05:01;;;;;;;6.25;1.45;;;19.00;99.90;;;;;;5087029;28;20659;-74
2023/04/26 10:07:33;;;;;;;5.00;1.40;;;19.00;99.90;;;;;;5083993;28;20203;-74
2023/04/26 10:10:05;;;;;;;5.65;1.70;;;18.90;99.90;;;;;;5079057;28;20225;-74
2023/04/26 10:12:37;;;;;;;6.32;1.33;;;18.90;99.90;;;;;;5078651;28;21078;-74
2023/04/26 10:15:10;;;;;;;5.70;1.30;;;18.90;99.90;;;;;;5092380;28;20196;-75
2023/04/26 10:17:43;;;;;;;6.97;1.30;;;18.80;99.90;;;;;;5077027;28;20200;-75
2023/04/26 10:20:17;;;;;;;9.70;1.38;;;18.80;99.90;;;;;;5085853;28;20229;-74
2023/04/26 10:22:59;;;;;;;6.25;1.20;;;18.80;99.90;;;;;;5089617;28;20200;-74
2023/04/26 10:25:41;;;;;;;4.97;1.27;;;18.70;99.90;;;;;;5077685;28;20205;-74
2023/04/26 10:28:12;;;;;;;5.18;1.05;;;18.60;99.90;;;;;;5082680;28;20196;-75
2023/04/26 10:30:59;;;;;;;5.28;1.30;;;18.60;99.90;;;;;;5115512;28;20195;-74
2023/04/26 10:33:32;;;;;;;4.18;1.15;;;18.50;99.90;;;;;;5088481;28;20235;-74
2023/04/26 10:36:10;;;;;;;7.28;1.35;;;18.50;99.90;;;;;;5084445;28;20224;-74
2023/04/26 10:38:44;;;;;;;5.95;1.40;;;18.40;99.90;;;;;;5094983;28;20196;-74
2023/04/26 10:41:33;;;;;;;6.97;1.30;;;18.50;99.90;;;;;;5093875;28;20203;-74
2023/04/26 10:44:41;;;;;;;6.70;1.08;;;18.50;99.90;;;;;;5080868;28;20203;-74
2023/04/26 10:47:29;;;;;;;6.68;1.10;;;18.50;99.90;;;;;;5087644;28;20188;-75
2023/04/26 10:50:12;;;;;;;6.10;1.02;;;18.50;99.90;;;;;;5095866;28;20632;-74
2023/04/26 10:53:09;;;;;;;5.22;1.00;;;18.50;99.90;;;;;;5085307;28;20209;-73
2023/04/26 10:55:44;;;;;;;8.13;1.02;;;18.60;99.90;;;;;;5085717;28;20669;-74
2023/04/26 10:58:30;;;;;;;11.13;1.50;;;18.60;99.90;;;;;;5092347;28;20206;-73
2023/04/26 11:01:12;;;;;;;9.45;1.00;;;18.70;99.90;;;;;;5082163;28;20607;-74
2023/04/26 11:03:44;;;;;;;5.38;0.90;;;18.70;99.90;;;;;;5089088;28;20195;-74
2023/04/26 11:06:18;;;;;;;8.68;1.20;;;18.80;99.90;;;;;;5097291;28;20204;-73
2023/04/26 11:08:51;;;;;;;9.23;1.00;;;18.90;99.90;;;;;;5102338;28;20197;-74
2023/04/26 11:11:28;;;;;;;6.65;0.80;;;18.90;99.90;;;;;;5095059;28;20196;-74
2023/04/26 11:14:03;;;;;;;5.10;0.85;;;19.00;99.90;;;;;;5107651;28;20219;-74
2023/04/26 11:16:35;;;;;;;6.25;0.93;;;19.10;99.90;;;;;;5080209;28;20204;-73
2023/04/26 11:19:06;;;;;;;8.57;0.98;;;19.10;99.90;;;;;;5075202;28;20200;-75
2023/04/26 11:21:39;;;;;;;7.00;1.27;;;19.10;99.90;;;;;;5088483;28;20560;-73
2023/04/26 11:24:11;;;;;;;12.52;2.03;;;19.10;99.90;;;;;;5080347;28;20193;-74
2023/04/26 11:26:42;;;;;;;7.38;1.13;;;19.10;99.90;;;;;;5075051;28;20210;-75
2023/04/26 11:29:19;;;;;;;8.52;1.10;;;19.20;99.90;;;;;;5080745;28;20193;-73
2023/04/26 11:32:00;;;;;;;9.00;1.17;;;19.20;99.90;;;;;;5086178;28;20564;-73
2023/04/26 11:34:36;;;;;;;5.30;0.90;;;19.20;99.90;;;;;;5109290;28;20243;-75
2023/04/26 11:37:10;;;;;;;3.80;1.00;;;19.20;99.90;;;;;;5095068;28;20217;-74
2023/04/26 11:39:41;;;;;;;5.40;0.90;;;19.10;99.90;;;;;;5089553;28;20222;-74
2023/04/26 11:42:13;;;;;;;9.02;1.05;;;19.10;99.90;;;;;;5092997;28;20201;-74
2023/04/26 11:44:44;;;;;;;2.30;0.77;;;19.10;99.90;;;;;;5086269;28;20647;-74
2023/04/26 11:47:15;;;;;;;3.90;0.82;;;19.00;99.90;;;;;;5094995;28;20636;-73
2023/04/26 11:49:47;;;;;;;8.40;1.25;;;19.00;99.90;;;;;;5088982;28;20651;-74
2023/04/26 11:52:20;;;;;;;5.85;1.20;;;18.90;99.90;;;;;;5091513;28;20211;-74
2023/04/26 11:54:51;;;;;;;5.45;0.90;;;18.80;99.90;;;;;;5115013;28;20686;-74
2023/04/26 11:57:23;;;;;;;5.20;1.00;;;18.80;99.90;;;;;;5115142;28;20270;-75
2023/04/26 11:59:54;;;;;;;6.00;1.10;;;18.70;99.90;;;;;;5114789;28;20188;-75
2023/04/26 12:02:27;;;;;;;6.22;1.38;;;18.70;99.90;;;;;;5102342;28;20246;-75
2023/04/26 12:05:02;;;;;;;8.85;1.02;;;18.60;99.90;;;;;;5096631;28;20192;-74
2023/04/26 12:07:39;;;;;;;5.10;0.77;;;18.50;99.90;;;;;;5074917;28;20273;-73
2023/04/26 12:10:20;;;;;;;5.03;0.90;;;18.40;99.90;;;;;;5082934;28;20188;-74
2023/04/26 12:12:52;;;;;;;4.70;0.90;;;18.40;99.90;;;;;;5092724;28;20192;-74
2023/04/26 12:15:26;;;;;;;3.88;0.80;;;18.30;99.90;;;;;;5094349;28;20188;-74
2023/04/26 12:18:02;;;;;;;6.97;1.17;;;18.30;99.90;;;;;;5093125;28;20203;-75
2023/04/26 12:20:34;;;;;;;7.53;1.05;;;18.30;99.90;;;;;;5074222;28;20240;-73
2023/04/26 12:23:08;;;;;;;5.30;1.08;;;18.30;99.90;;;;;;5086738;28;20188;-73
2023/04/26 12:25:40;;;;;;;7.63;1.10;;;18.20;99.90;;;;;;5079299;28;20202;-74
2023/04/26 12:28:14;;;;;;;5.40;1.00;;;18.20;99.90;;;;;;5073759;28;20192;-73
2023/04/26 12:30:45;;;;;;;4.82;1.10;;;18.10;99.90;;;;;;5073723;28;20185;-75
2023/04/26 12:33:18;;;;;;;6.25;0.90;;;18.10;99.90;;;;;;5080832;28;20216;-73
2023/04/26 12:35:50;;;;;;;3.85;0.82;;;18.00;99.90;;;;;;5094031;28;20220;-73
2023/04/26 12:38:23;;;;;;;4.68;0.88;;;18.00;99.90;;;;;;5094361;28;20545;-74
2023/04/26 12:40:54;;;;;;;3.08;0.70;;;17.90;99.90;;;;;;5094546;28;20279;-74
2023/04/26 12:43:25;;;;;;;5.18;0.80;;;17.90;99.90;;;;;;5074871;28;20189;-74
2023/04/26 12:45:56;;;;;;;6.10;0.82;;;17.90;99.90;;;;;;5094782;28;20553;-74
2023/04/26 12:48:27;;;;;;;3.70;0.73;;;17.90;99.90;;;;;;5082398;28;20206;-74
2023/04/26 12:50:59;;;;;;;5.00;1.15;;;17.80;99.90;;;;;;5093664;28;20681;-74
2023/04/26 12:53:32;;;;;;;3.40;0.70;;;17.80;99.90;;;;;;5101039;28;20223;-74
2023/04/26 12:56:03;;;;;;;3.97;0.90;;;17.80;99.90;;;;;;5086480;28;20196;-74
2023/04/26 12:58:34;;;;;;;3.67;0.77;;;17.80;99.90;;;;;;5090618;28;20196;-74
2023/04/26 13:01:05;;;;;;;5.55;0.80;;;17.80;99.90;;;;;;5085402;28;20267;-74
2023/04/26 13:03:37;;;;;;;4.55;0.77;;;17.80;99.90;;;;;;5095450;28;20196;-74
2023/04/26 13:06:08;;;;;;;2.95;0.70;;;17.80;99.90;;;;;;5093574;28;20524;-74
2023/04/26 13:08:43;;;;;;;8.25;0.93;;;17.80;99.90;;;;;;5112956;28;20266;-73
2023/04/26 13:11:14;;;;;;;4.65;0.82;;;17.90;99.90;;;;;;5077550;28;20198;-74
2023/04/26 13:13:45;;;;;;;2.75;0.70;;;17.90;99.90;;;;;;5094573;28;20222;-73